Time;durP1;ratioP1;P1;durP2;ratioP2;P2;SDS_P1;SDS_P2;PMS_P1;PMS_P2;Temp;Humidity;BMP_temperature;BMP_pressure;BME280_temperature;BME280_humidity;BME280_pressure;Samples;Min_cycle;Max_cycle;Signal;HPM_P1;HPM_P2
2023/10/21 00:00:14;;;;;;;16.70;6.30;;;;;;;15.37;71.24;99947.08;107578;1253;109433;-62
2023/10/21 00:03:03;;;;;;;24.40;6.60;;;;;;;15.34;71.44;99946.25;107440;1257;109838;-62
2023/10/21 00:05:31;;;;;;;16.90;6.30;;;;;;;15.31;71.35;99945.88;107547;1253;97939;-61
2023/10/21 00:07:59;;;;;;;17.10;6.00;;;;;;;15.25;71.39;99948.13;107519;1251;97835;-62
2023/10/21 00:10:28;;;;;;;24.70;6.10;;;;;;;15.23;71.60;99948.48;107559;1249;111486;-63
2023/10/21 00:12:56;;;;;;;20.30;5.90;;;;;;;15.22;71.71;99949.20;107571;1254;109728;-62
2023/10/21 00:15:24;;;;;;;22.50;7.40;;;;;;;15.18;71.70;99954.58;107590;1256;107856;-61
2023/10/21 00:17:53;;;;;;;21.10;6.10;;;;;;;15.14;71.55;99945.47;107567;1251;97710;-62
2023/10/21 00:20:21;;;;;;;27.90;6.10;;;;;;;15.11;71.58;99950.01;107622;1256;97941;-62
2023/10/21 00:22:49;;;;;;;16.70;6.20;;;;;;;15.08;71.74;99960.98;107548;1253;111853;-61
2023/10/21 00:25:18;;;;;;;18.90;6.10;;;;;;;15.09;71.66;99964.90;107568;1254;109171;-61
2023/10/21 00:27:46;;;;;;;29.50;7.20;;;;;;;15.08;71.53;99966.09;107472;1257;108123;-62
2023/10/21 00:30:15;;;;;;;29.70;6.80;;;;;;;15.08;71.66;99971.05;107515;1256;97829;-62
2023/10/21 00:32:44;;;;;;;16.60;6.40;;;;;;;15.09;71.56;99972.08;107624;1251;98447;-62
2023/10/21 00:35:12;;;;;;;14.30;5.50;;;;;;;15.08;71.65;99964.73;107602;1251;113415;-63
2023/10/21 00:37:41;;;;;;;21.50;6.00;;;;;;;15.07;71.37;99965.08;107588;1251;109688;-62
2023/10/21 00:40:11;;;;;;;26.50;5.30;;;;;;;15.02;71.37;99970.52;107592;1251;108132;-62
2023/10/21 00:42:39;;;;;;;17.70;5.30;;;;;;;14.98;71.37;99968.49;107609;1251;97856;-62
2023/10/21 00:45:08;;;;;;;15.80;5.60;;;;;;;14.97;71.25;99973.36;107586;1253;97735;-62
2023/10/21 00:47:36;;;;;;;15.30;5.50;;;;;;;14.96;71.19;99975.13;107639;1254;111041;-62
2023/10/21 00:50:06;;;;;;;28.20;5.00;;;;;;;14.93;71.18;99972.17;107614;1254;109288;-63
2023/10/21 00:52:44;;;;;;;17.30;5.10;;;;;;;14.91;71.23;99970.59;107665;1251;105695;-61
2023/10/21 00:55:13;;;;;;;15.60;5.60;;;;;;;14.90;71.13;99971.23;107600;1256;97826;-63
2023/10/21 00:57:42;;;;;;;11.00;5.60;;;;;;;14.89;71.24;99973.73;107647;1250;97781;-61
2023/10/21 01:00:11;;;;;;;20.10;5.40;;;;;;;14.89;71.23;99975.04;107537;1251;113007;-63
2023/10/21 01:02:43;;;;;;;28.00;6.10;;;;;;;14.87;71.08;99972.11;107583;1253;108687;-62
2023/10/21 01:05:13;;;;;;;16.70;5.50;;;;;;;14.83;71.04;99977.64;107640;1256;108105;-61
2023/10/21 01:07:43;;;;;;;14.50;5.00;;;;;;;14.80;71.11;99971.05;107599;1251;97851;-61
2023/10/21 01:10:12;;;;;;;18.00;5.70;;;;;;;14.76;71.01;99968.84;107599;1251;97822;-63
2023/10/21 01:12:40;;;;;;;18.70;5.20;;;;;;;14.71;71.02;99967.83;107409;1253;111109;-62
2023/10/21 01:15:08;;;;;;;17.00;6.00;;;;;;;14.68;70.95;99968.80;107639;1251;109006;-64
2023/10/21 01:17:37;;;;;;;26.30;5.30;;;;;;;14.60;70.83;99973.10;107622;1251;108001;-62
2023/10/21 01:20:06;;;;;;;19.60;5.80;;;;;;;14.57;70.97;99970.46;107541;1251;97861;-63
2023/10/21 01:22:34;;;;;;;20.50;5.60;;;;;;;14.54;70.98;99972.34;107609;1254;98386;-61
2023/10/21 01:25:04;;;;;;;12.80;5.10;;;;;;;14.53;71.10;99975.23;107588;1251;110424;-61
2023/10/21 01:27:32;;;;;;;18.90;6.30;;;;;;;14.51;71.35;99980.16;107644;1254;110103;-62
2023/10/21 01:30:01;;;;;;;20.20;6.30;;;;;;;14.50;71.29;99978.30;107621;1251;108306;-62
2023/10/21 01:32:29;;;;;;;15.00;5.20;;;;;;;14.48;71.35;99981.96;107557;1253;97842;-63
2023/10/21 01:34:58;;;;;;;13.80;5.50;;;;;;;14.44;70.99;99982.81;107595;1251;97916;-62
2023/10/21 01:37:26;;;;;;;14.50;5.10;;;;;;;14.41;71.01;99988.04;107621;1256;112033;-63
2023/10/21 01:39:54;;;;;;;16.10;5.70;;;;;;;14.36;71.11;99993.21;107473;1251;110010;-62
2023/10/21 01:42:23;;;;;;;18.00;5.00;;;;;;;14.32;71.06;100000.55;107452;1257;108216;-63
2023/10/21 01:44:54;;;;;;;24.10;5.40;;;;;;;14.27;71.02;99998.45;107584;1256;97846;-62
2023/10/21 01:47:22;;;;;;;22.90;5.20;;;;;;;14.23;71.10;100004.13;107484;1251;98328;-63
2023/10/21 01:49:50;;;;;;;15.80;5.30;;;;;;;14.20;71.14;100001.73;107495;1251;111423;-63
2023/10/21 01:52:20;;;;;;;22.80;5.10;;;;;;;14.19;71.23;100003.39;107433;1254;109776;-62
2023/10/21 01:54:48;;;;;;;16.30;5.60;;;;;;;14.17;71.44;100004.84;107628;1251;108156;-61
2023/10/21 01:57:16;;;;;;;24.10;6.00;;;;;;;14.16;71.44;100001.91;107582;1251;97841;-62
2023/10/21 01:59:45;;;;;;;17.90;5.80;;;;;;;14.15;71.48;100007.49;107550;1251;97796;-63
2023/10/21 02:02:13;;;;;;;13.70;5.30;;;;;;;14.13;71.52;100008.83;107596;1255;112371;-62
2023/10/21 02:04:42;;;;;;;12.40;5.60;;;;;;;14.11;71.52;100008.63;107611;1251;109320;-61
2023/10/21 02:07:10;;;;;;;15.70;5.20;;;;;;;14.09;71.53;100006.85;107614;1251;107286;-62
2023/10/21 02:09:39;;;;;;;20.40;5.10;;;;;;;14.08;71.81;100011.45;107571;1251;97948;-62
2023/10/21 02:12:08;;;;;;;13.40;5.70;;;;;;;14.06;71.72;100010.55;107584;1251;97861;-64
2023/10/21 02:14:36;;;;;;;15.00;5.90;;;;;;;14.03;71.56;100009.65;107661;1257;111654;-62
2023/10/21 02:17:05;;;;;;;11.50;5.50;;;;;;;14.01;71.63;100011.94;107420;1254;109958;-63
2023/10/21 02:19:33;;;;;;;10.80;4.70;;;;;;;14.00;71.64;100011.54;107482;1257;108510;-63
2023/10/21 02:22:03;;;;;;;17.50;4.50;;;;;;;13.98;71.71;100017.29;107558;1251;97908;-62
2023/10/21 02:24:35;;;;;;;17.00;5.20;;;;;;;13.97;71.73;100026.25;107584;1251;97841;-62
2023/10/21 02:27:04;;;;;;;21.00;4.90;;;;;;;13.96;71.77;100027.94;107655;1253;110416;-62
2023/10/21 02:29:33;;;;;;;20.90;5.90;;;;;;;13.95;71.82;100029.23;107521;1251;108882;-62
2023/10/21 02:32:03;;;;;;;19.70;5.40;;;;;;;13.93;71.93;100025.39;107620;1251;108556;-62
2023/10/21 02:34:32;;;;;;;18.50;5.60;;;;;;;13.92;72.02;100021.79;107517;1253;97847;-63
2023/10/21 02:37:01;;;;;;;19.70;4.80;;;;;;;13.86;71.94;100021.88;107420;1257;97765;-61
2023/10/21 02:39:29;;;;;;;21.40;5.50;;;;;;;13.83;71.88;100020.30;107606;1254;112018;-62
2023/10/21 02:41:58;;;;;;;13.60;5.00;;;;;;;13.82;72.05;100027.57;107612;1251;109793;-62
2023/10/21 02:44:27;;;;;;;19.50;5.00;;;;;;;13.80;71.97;100028.77;107608;1256;108497;-62
2023/10/21 02:46:56;;;;;;;14.40;4.50;;;;;;;13.78;71.91;100027.69;107594;1254;97873;-63
2023/10/21 02:49:24;;;;;;;16.10;6.40;;;;;;;13.77;72.12;100030.46;107588;1255;98044;-62
2023/10/21 02:51:52;;;;;;;10.50;5.10;;;;;;;13.76;72.03;100032.39;107665;1251;113224;-63
2023/10/21 02:54:21;;;;;;;11.60;5.10;;;;;;;13.72;72.07;100035.14;107689;1251;110533;-63
2023/10/21 02:56:49;;;;;;;19.80;5.30;;;;;;;13.69;71.88;100034.23;107397;1254;107888;-62
2023/10/21 02:59:17;;;;;;;18.60;5.60;;;;;;;13.67;71.95;100038.55;107433;1254;97931;-63
2023/10/21 03:01:45;;;;;;;24.00;5.40;;;;;;;13.65;72.16;100040.55;107393;1257;97740;-64
2023/10/21 03:04:14;;;;;;;26.80;5.80;;;;;;;13.63;72.17;100043.45;107609;1253;111118;-62
2023/10/21 03:06:42;;;;;;;25.50;6.00;;;;;;;13.62;72.32;100040.70;107573;1254;109375;-61
2023/10/21 03:09:10;;;;;;;21.00;5.40;;;;;;;13.59;72.21;100038.50;107576;1251;108225;-62
2023/10/21 03:11:39;;;;;;;19.70;5.10;;;;;;;13.56;72.41;100042.08;107448;1254;97907;-62
2023/10/21 03:14:07;;;;;;;15.20;4.80;;;;;;;13.52;72.23;100042.86;107648;1254;97880;-61
2023/10/21 03:16:37;;;;;;;11.30;5.70;;;;;;;13.52;72.51;100044.71;107635;1251;112031;-63
2023/10/21 03:19:05;;;;;;;14.90;5.30;;;;;;;13.50;72.49;100050.99;107443;1257;109160;-62
2023/10/21 03:21:34;;;;;;;20.10;4.70;;;;;;;13.46;72.35;100050.88;107566;1251;107805;-62
2023/10/21 03:24:03;;;;;;;17.30;5.10;;;;;;;13.44;72.32;100051.72;107432;1251;97892;-62
2023/10/21 03:26:31;;;;;;;15.20;5.10;;;;;;;13.40;72.38;100052.26;107431;1251;97880;-65
2023/10/21 03:28:59;;;;;;;14.40;5.00;;;;;;;13.36;72.37;100056.14;107569;1251;113137;-62
2023/10/21 03:31:28;;;;;;;17.60;5.00;;;;;;;13.34;72.54;100061.06;107571;1251;109493;-63
2023/10/21 03:33:56;;;;;;;12.50;5.40;;;;;;;13.34;72.63;100061.27;107504;1251;107531;-61
2023/10/21 03:36:26;;;;;;;12.70;5.30;;;;;;;13.33;72.58;100062.76;107552;1254;97848;-61
2023/10/21 03:38:54;;;;;;;22.40;5.40;;;;;;;13.32;72.53;100064.14;107574;1253;98364;-61
2023/10/21 03:41:23;;;;;;;17.80;5.20;;;;;;;13.29;72.35;100059.48;107624;1251;111130;-62
2023/10/21 03:43:51;;;;;;;14.90;5.50;;;;;;;13.25;72.36;100060.98;107613;1251;109249;-63
2023/10/21 03:46:20;;;;;;;26.00;6.10;;;;;;;13.23;72.40;100064.94;107604;1253;107168;-62
2023/10/21 03:48:48;;;;;;;19.30;5.70;;;;;;;13.21;72.42;100064.80;107642;1253;97825;-63
2023/10/21 03:51:17;;;;;;;28.50;6.70;;;;;;;13.20;72.63;100061.02;107430;1253;98398;-64
2023/10/21 03:53:46;;;;;;;12.50;5.10;;;;;;;13.17;72.52;100059.30;107640;1256;111581;-62
2023/10/21 03:56:15;;;;;;;11.90;5.10;;;;;;;13.14;72.47;100063.02;107670;1253;110096;-61
2023/10/21 03:58:43;;;;;;;14.40;5.40;;;;;;;13.11;72.47;100068.75;107614;1255;106805;-62
2023/10/21 04:01:12;;;;;;;16.10;6.60;;;;;;;13.08;72.41;100075.79;107580;1251;97810;-61
2023/10/21 04:03:40;;;;;;;15.60;5.00;;;;;;;13.08;72.74;100078.52;107641;1251;97717;-61
2023/10/21 04:06:08;;;;;;;20.10;5.50;;;;;;;13.08;72.75;100086.05;107626;1256;111872;-63
2023/10/21 04:08:37;;;;;;;27.90;6.40;;;;;;;13.07;72.71;100091.38;107628;1251;109346;-62
2023/10/21 04:11:06;;;;;;;12.40;6.70;;;;;;;13.06;72.75;100090.05;107601;1250;107366;-63
2023/10/21 04:13:34;;;;;;;21.30;6.00;;;;;;;13.04;72.62;100085.97;107538;1249;97834;-62
2023/10/21 04:16:03;;;;;;;15.80;6.10;;;;;;;13.01;72.53;100077.27;107668;1251;97738;-61
2023/10/21 04:18:32;;;;;;;23.50;6.30;;;;;;;12.98;72.57;100078.48;107555;1251;112721;-61
2023/10/21 04:21:01;;;;;;;18.00;6.80;;;;;;;12.95;72.68;100076.70;107606;1251;109807;-61
2023/10/21 04:23:29;;;;;;;19.20;6.30;;;;;;;12.92;72.65;100078.48;107629;1250;107481;-62
2023/10/21 04:25:58;;;;;;;22.70;5.20;;;;;;;12.88;72.51;100082.80;107592;1250;97822;-62
2023/10/21 04:28:26;;;;;;;27.70;5.90;;;;;;;12.84;72.49;100081.09;107611;1253;97724;-63
2023/10/21 04:30:54;;;;;;;18.80;5.70;;;;;;;12.80;72.46;100079.42;107577;1253;112235;-62
2023/10/21 04:33:23;;;;;;;25.70;11.00;;;;;;;12.76;72.52;100080.06;107620;1253;110049;-62
2023/10/21 04:35:51;;;;;;;27.20;12.00;;;;;;;12.71;72.58;100085.20;107615;1251;108304;-61
2023/10/21 04:38:20;;;;;;;27.10;6.20;;;;;;;12.66;72.84;100087.95;107635;1251;97844;-62
2023/10/21 04:40:48;;;;;;;27.40;8.80;;;;;;;12.59;72.78;100091.92;107616;1251;97846;-62
2023/10/21 04:43:17;;;;;;;21.50;6.50;;;;;;;12.59;72.94;100092.13;107603;1253;112184;-63
2023/10/21 04:45:45;;;;;;;20.40;6.10;;;;;;;12.60;73.09;100095.02;107562;1253;110875;-63
2023/10/21 04:48:13;;;;;;;23.50;7.10;;;;;;;12.61;73.24;100098.67;107653;1255;108663;-62
2023/10/21 04:50:41;;;;;;;16.60;6.50;;;;;;;12.61;73.10;100100.92;107579;1251;97915;-61
2023/10/21 04:53:09;;;;;;;25.70;5.80;;;;;;;12.59;73.18;100098.98;107612;1253;98471;-62
2023/10/21 04:55:38;;;;;;;18.50;5.90;;;;;;;12.59;73.27;100104.84;107681;1251;111183;-63
2023/10/21 04:58:07;;;;;;;29.30;6.20;;;;;;;12.60;73.31;100105.65;107583;1253;109944;-63
2023/10/21 05:00:36;;;;;;;26.60;5.70;;;;;;;12.63;73.41;100110.91;107494;1251;108151;-63
2023/10/21 05:03:04;;;;;;;26.50;6.30;;;;;;;12.67;73.46;100115.68;107643;1256;97999;-63
2023/10/21 05:05:34;;;;;;;29.70;8.90;;;;;;;12.73;73.54;100118.27;107640;1254;97732;-62
2023/10/21 05:08:03;;;;;;;19.40;6.50;;;;;;;12.78;73.52;100120.27;107655;1253;111238;-61
2023/10/21 05:10:31;;;;;;;19.90;6.90;;;;;;;12.83;73.43;100125.95;107572;1253;109436;-61
2023/10/21 05:13:00;;;;;;;17.10;5.50;;;;;;;12.89;73.42;100126.53;107548;1254;108896;-62
2023/10/21 05:15:28;;;;;;;29.20;6.10;;;;;;;12.94;73.47;100126.14;107621;1253;97862;-63
2023/10/21 05:17:57;;;;;;;21.70;6.80;;;;;;;12.99;73.39;100129.17;107649;1251;97938;-62
2023/10/21 05:20:26;;;;;;;21.20;6.70;;;;;;;13.05;73.24;100139.67;107640;1253;111403;-61
2023/10/21 05:22:54;;;;;;;23.90;6.40;;;;;;;13.10;73.43;100142.31;107645;1253;109114;-61
2023/10/21 05:25:23;;;;;;;17.10;6.10;;;;;;;13.15;73.27;100140.59;107637;1251;108021;-63
2023/10/21 05:27:52;;;;;;;20.30;6.80;;;;;;;13.20;73.20;100142.52;107623;1251;97814;-63
2023/10/21 05:30:20;;;;;;;30.00;6.20;;;;;;;13.25;73.18;100139.45;107629;1251;97710;-65
2023/10/21 05:32:49;;;;;;;16.70;6.20;;;;;;;13.29;73.16;100146.58;107616;1252;111336;-62
2023/10/21 05:35:18;;;;;;;18.70;6.30;;;;;;;13.38;73.25;100146.38;107616;1254;109887;-64
2023/10/21 05:37:46;;;;;;;32.20;7.50;;;;;;;13.47;73.30;100154.32;107582;1249;108593;-62
2023/10/21 05:40:15;;;;;;;22.70;7.30;;;;;;;13.55;73.29;100151.88;107476;1251;97912;-62
2023/10/21 05:42:43;;;;;;;19.60;5.60;;;;;;;13.63;73.15;100154.56;107532;1253;97850;-64
2023/10/21 05:45:11;;;;;;;27.40;7.40;;;;;;;13.73;73.14;100156.02;107605;1250;112825;-63
2023/10/21 05:47:39;;;;;;;25.60;7.10;;;;;;;13.80;72.96;100161.88;107599;1251;110113;-62
2023/10/21 05:50:09;;;;;;;19.90;6.40;;;;;;;13.92;73.05;100161.67;107581;1251;108547;-61
2023/10/21 05:52:37;;;;;;;31.20;6.00;;;;;;;14.09;72.90;100167.16;107563;1252;97820;-62
2023/10/21 05:55:06;;;;;;;31.80;6.50;;;;;;;14.21;72.63;100162.48;107458;1253;97762;-62
2023/10/21 05:57:34;;;;;;;35.30;7.00;;;;;;;14.30;72.31;100170.54;107605;1250;112433;-63
2023/10/21 06:00:08;;;;;;;29.80;7.60;;;;;;;14.40;72.22;100174.31;107581;1253;108731;-64
2023/10/21 06:02:37;;;;;;;26.00;7.00;;;;;;;14.47;71.94;100177.41;107543;1251;108598;-62
2023/10/21 06:05:06;;;;;;;28.30;6.40;;;;;;;14.54;71.97;100181.52;107609;1251;97915;-62
2023/10/21 06:07:34;;;;;;;20.40;6.20;;;;;;;14.60;71.68;100184.14;107662;1253;98499;-63
2023/10/21 06:10:04;;;;;;;16.90;5.80;;;;;;;14.67;71.61;100186.35;107662;1253;110877;-64
2023/10/21 06:12:32;;;;;;;26.70;6.10;;;;;;;14.74;71.40;100190.15;107682;1251;109357;-61
2023/10/21 06:15:02;;;;;;;18.20;5.60;;;;;;;14.80;71.20;100194.52;107682;1251;107822;-61
2023/10/21 06:17:30;;;;;;;20.10;6.10;;;;;;;14.86;71.09;100196.79;107523;1251;97944;-64
2023/10/21 06:19:59;;;;;;;21.40;6.50;;;;;;;14.93;70.81;100201.07;107656;1251;97989;-62
2023/10/21 06:22:28;;;;;;;28.50;7.70;;;;;;;15.00;70.86;100200.25;107667;1250;111847;-62
2023/10/21 06:24:56;;;;;;;22.10;6.80;;;;;;;15.10;70.72;100210.00;107530;1251;108462;-64
2023/10/21 06:27:25;;;;;;;23.30;5.90;;;;;;;15.18;70.47;100209.61;107633;1253;108041;-61
2023/10/21 06:29:53;;;;;;;19.50;6.60;;;;;;;15.26;70.26;100210.05;107556;1251;97917;-62
2023/10/21 06:32:22;;;;;;;17.00;7.30;;;;;;;15.35;69.96;100204.53;107656;1253;99546;-62
2023/10/21 06:34:50;;;;;;;17.60;6.70;;;;;;;15.45;69.83;100205.68;107657;1252;111301;-62
2023/10/21 06:37:18;;;;;;;30.40;7.10;;;;;;;15.55;69.68;100209.38;107605;1251;108803;-61
2023/10/21 06:39:47;;;;;;;40.30;9.00;;;;;;;15.65;69.54;100208.52;107552;1256;108592;-61
2023/10/21 06:42:16;;;;;;;31.90;11.00;;;;;;;15.78;69.26;100215.38;107611;1251;98280;-62
2023/10/21 06:44:45;;;;;;;26.30;9.70;;;;;;;15.90;69.18;100217.06;107628;1253;97798;-62
2023/10/21 06:47:13;;;;;;;26.90;9.60;;;;;;;16.03;68.89;100221.23;107604;1249;111153;-61
2023/10/21 06:49:41;;;;;;;24.20;8.40;;;;;;;16.16;68.09;100215.91;107452;1253;110171;-62
2023/10/21 06:52:11;;;;;;;29.20;7.30;;;;;;;16.31;67.80;100213.53;107514;1251;108304;-63
2023/10/21 06:54:39;;;;;;;21.30;7.70;;;;;;;16.48;67.45;100214.72;107578;1251;97837;-62
2023/10/21 06:57:07;;;;;;;26.20;7.70;;;;;;;16.66;66.84;100213.41;107624;1252;97944;-62
2023/10/21 06:59:35;;;;;;;34.20;7.40;;;;;;;16.86;66.36;100215.54;107666;1255;111474;-62
2023/10/21 07:02:04;;;;;;;26.30;7.80;;;;;;;17.06;66.11;100222.34;107651;1252;108822;-63
2023/10/21 07:04:33;;;;;;;28.90;7.70;;;;;;;17.26;65.82;100224.67;107616;1253;107381;-63
2023/10/21 07:07:05;;;;;;;30.20;6.60;;;;;;;17.49;65.79;100222.50;107601;1251;97948;-61
2023/10/21 07:09:33;;;;;;;20.70;6.40;;;;;;;17.72;65.45;100223.95;107685;1251;97834;-63
2023/10/21 07:12:03;;;;;;;23.40;7.00;;;;;;;17.93;63.89;100226.73;107632;1251;110958;-61
2023/10/21 07:14:32;;;;;;;22.00;6.90;;;;;;;18.13;62.94;100232.70;107644;1254;108845;-62
2023/10/21 07:17:01;;;;;;;22.10;6.50;;;;;;;18.33;63.21;100234.88;107582;1252;108257;-63
2023/10/21 07:19:30;;;;;;;31.20;6.60;;;;;;;18.51;62.26;100231.78;107605;1253;97732;-64
2023/10/21 07:21:58;;;;;;;24.90;6.50;;;;;;;18.67;60.72;100234.04;107654;1253;97904;-62
2023/10/21 07:24:26;;;;;;;17.30;7.90;;;;;;;18.84;60.70;100239.52;107676;1251;112392;-63
2023/10/21 07:26:54;;;;;;;26.40;6.70;;;;;;;19.02;60.29;100242.42;107663;1251;109788;-63
2023/10/21 07:29:22;;;;;;;29.40;7.70;;;;;;;19.20;60.33;100238.90;107528;1252;107417;-63
2023/10/21 07:31:51;;;;;;;28.10;7.80;;;;;;;19.44;59.26;100241.92;107623;1253;97934;-63
2023/10/21 07:34:22;;;;;;;26.60;7.10;;;;;;;19.65;58.32;100242.70;107569;1253;98372;-62
2023/10/21 07:36:51;;;;;;;19.00;5.60;;;;;;;19.87;57.43;100246.83;107534;1256;110966;-62
2023/10/21 07:39:19;;;;;;;27.80;6.80;;;;;;;20.09;56.97;100252.95;107502;1252;108462;-61
2023/10/21 07:41:48;;;;;;;28.60;6.60;;;;;;;20.31;56.66;100251.91;107542;1251;108038;-63
2023/10/21 07:44:16;;;;;;;24.80;6.20;;;;;;;20.53;56.67;100249.58;107591;1251;97867;-62
2023/10/21 07:46:47;;;;;;;24.00;6.90;;;;;;;20.75;55.81;100251.49;107687;1251;97894;-62
2023/10/21 07:49:16;;;;;;;31.10;6.30;;;;;;;20.93;54.85;100255.06;107579;1251;112463;-61
2023/10/21 07:51:45;;;;;;;16.80;5.60;;;;;;;21.10;55.01;100258.11;107662;1250;109220;-63
2023/10/21 07:54:13;;;;;;;30.70;8.40;;;;;;;21.29;54.30;100255.66;107526;1253;108260;-63
2023/10/21 07:56:45;;;;;;;24.10;6.80;;;;;;;21.47;54.47;100259.38;107457;1253;97840;-64
2023/10/21 07:59:19;;;;;;;24.60;7.30;;;;;;;21.67;54.43;100253.66;107629;1251;97900;-63
2023/10/21 08:01:49;;;;;;;32.50;7.50;;;;;;;21.87;54.63;100257.34;107621;1251;111261;-63
2023/10/21 08:04:18;;;;;;;22.50;6.80;;;;;;;22.08;52.82;100256.69;107644;1251;109821;-62
2023/10/21 08:06:46;;;;;;;22.40;6.60;;;;;;;22.26;52.29;100258.11;107587;1251;108107;-62
2023/10/21 08:09:15;;;;;;;15.60;5.60;;;;;;;22.50;52.45;100260.09;107569;1253;97913;-62
2023/10/21 08:11:44;;;;;;;37.10;7.60;;;;;;;22.72;51.77;100265.52;107580;1255;98365;-62
2023/10/21 08:14:13;;;;;;;21.00;6.90;;;;;;;22.86;51.54;100260.95;107650;1253;112532;-62
2023/10/21 08:16:42;;;;;;;30.00;5.80;;;;;;;22.96;51.46;100257.89;107529;1252;110419;-62
2023/10/21 08:19:11;;;;;;;26.70;6.50;;;;;;;23.04;51.13;100257.79;107574;1251;107575;-63
2023/10/21 08:21:40;;;;;;;37.00;9.00;;;;;;;23.09;51.07;100258.30;107567;1253;97765;-63
2023/10/21 08:24:09;;;;;;;31.00;10.50;;;;;;;23.17;51.12;100257.23;107649;1251;97757;-62
2023/10/21 08:26:37;;;;;;;28.30;6.90;;;;;;;23.34;50.98;100255.16;107594;1253;111006;-62
2023/10/21 08:29:06;;;;;;;27.60;7.40;;;;;;;23.50;50.40;100252.84;107654;1253;110084;-62
2023/10/21 08:31:34;;;;;;;38.30;9.30;;;;;;;23.65;49.79;100251.35;107639;1251;108050;-62
2023/10/21 08:34:02;;;;;;;31.70;8.50;;;;;;;23.78;49.76;100257.01;107608;1251;97848;-62
2023/10/21 08:36:30;;;;;;;27.40;7.40;;;;;;;23.97;49.90;100256.05;107580;1251;98370;-62
2023/10/21 08:38:59;;;;;;;33.40;7.30;;;;;;;24.21;49.35;100254.64;107640;1251;111813;-62
2023/10/21 08:41:36;;;;;;;38.10;7.70;;;;;;;24.55;49.06;100253.79;107598;1253;109107;-62
2023/10/21 08:44:08;;;;;;;31.80;6.60;;;;;;;24.94;48.47;100246.41;107588;1254;108277;-62
2023/10/21 08:46:37;;;;;;;36.20;7.30;;;;;;;25.28;46.60;100246.89;107544;1253;98000;-62
2023/10/21 08:49:08;;;;;;;31.40;7.00;;;;;;;25.57;46.17;100246.11;107703;1254;97838;-62
2023/10/21 08:51:37;;;;;;;26.10;6.20;;;;;;;25.97;45.72;100243.34;107620;1251;112114;-63
2023/10/21 08:54:07;;;;;;;28.30;5.70;;;;;;;26.49;45.00;100240.73;107634;1251;110191;-62
2023/10/21 08:56:35;;;;;;;28.00;6.20;;;;;;;27.21;44.07;100241.56;107592;1251;109343;-62
2023/10/21 08:59:04;;;;;;;31.20;6.60;;;;;;;27.92;40.97;100243.26;107549;1253;97839;-64
2023/10/21 09:01:35;;;;;;;24.00;6.40;;;;;;;28.56;40.17;100242.61;107590;1251;97717;-63
2023/10/21 09:04:04;;;;;;;21.60;6.00;;;;;;;29.16;38.34;100239.20;107627;1250;111090;-64
2023/10/21 09:06:32;;;;;;;32.40;6.70;;;;;;;29.63;37.86;100241.32;107633;1256;109885;-63
2023/10/21 09:09:00;;;;;;;24.20;6.80;;;;;;;30.24;38.34;100243.05;107588;1251;106789;-64
2023/10/21 09:11:30;;;;;;;13.70;5.90;;;;;;;30.86;37.30;100237.45;107653;1252;97889;-62
2023/10/21 09:13:59;;;;;;;35.90;5.40;;;;;;;31.36;35.77;100239.27;107592;1252;97827;-62
2023/10/21 09:16:29;;;;;;;23.70;6.00;;;;;;;31.74;34.88;100233.23;107622;1251;111737;-63
2023/10/21 09:19:12;;;;;;;44.80;6.20;;;;;;;32.16;34.22;100235.67;107572;1251;109109;-62
2023/10/21 09:21:45;;;;;;;26.40;6.20;;;;;;;32.66;34.60;100234.72;107534;1251;107475;-63
2023/10/21 09:24:23;;;;;;;28.60;6.50;;;;;;;33.14;32.97;100234.70;107597;1253;97855;-62
2023/10/21 09:26:51;;;;;;;23.00;7.40;;;;;;;33.67;32.29;100232.78;107599;1255;98751;-62
2023/10/21 09:29:22;;;;;;;25.70;5.50;;;;;;;34.21;32.11;100231.94;107660;1253;111516;-63
2023/10/21 09:31:53;;;;;;;18.50;5.40;;;;;;;34.62;30.20;100231.91;107628;1252;110316;-62
2023/10/21 09:34:24;;;;;;;22.70;5.10;;;;;;;34.98;29.89;100231.22;107617;1252;108795;-63
2023/10/21 09:37:05;;;;;;;25.30;5.20;;;;;;;35.44;29.82;100229.41;107663;1251;97819;-63
2023/10/21 09:39:37;;;;;;;23.10;5.40;;;;;;;35.86;29.07;100230.77;107662;1251;98401;-63
2023/10/21 09:42:06;;;;;;;22.30;5.20;;;;;;;36.29;28.07;100233.22;107585;1253;111124;-63
2023/10/21 09:44:35;;;;;;;24.20;5.00;;;;;;;36.72;27.93;100230.36;107636;1253;108801;-61
2023/10/21 09:47:06;;;;;;;16.30;5.50;;;;;;;37.06;26.62;100231.20;107591;1252;108567;-62
2023/10/21 09:49:38;;;;;;;19.90;5.60;;;;;;;37.24;26.34;100232.19;107640;1251;97725;-63
2023/10/21 09:52:11;;;;;;;17.80;5.20;;;;;;;37.60;25.38;100226.42;107607;1255;98479;-63
2023/10/21 09:54:55;;;;;;;21.80;5.30;;;;;;;37.79;24.43;100229.16;107577;1251;111665;-62
2023/10/21 09:57:25;;;;;;;23.90;5.40;;;;;;;38.06;24.77;100226.48;107589;1251;109931;-62
2023/10/21 09:59:56;;;;;;;23.40;5.60;;;;;;;38.21;23.06;100227.86;107596;1251;107986;-63
2023/10/21 10:02:26;;;;;;;21.90;4.70;;;;;;;38.23;23.70;100227.95;107632;1251;97854;-62
2023/10/21 10:04:55;;;;;;;19.60;5.50;;;;;;;38.36;23.75;100223.42;107604;1256;97938;-63
2023/10/21 10:07:23;;;;;;;18.80;5.10;;;;;;;38.28;23.98;100227.84;107623;1250;110957;-63
2023/10/21 10:09:58;;;;;;;24.30;6.30;;;;;;;38.10;22.61;100223.58;107581;1253;109392;-64
2023/10/21 10:12:38;;;;;;;25.40;4.80;;;;;;;37.84;22.69;100221.63;107376;1253;305833;-65
2023/10/21 10:15:33;;;;;;;14.70;4.70;;;;;;;37.95;22.77;100216.60;107600;1255;97743;-66
2023/10/21 10:18:04;;;;;;;28.90;6.10;;;;;;;38.29;23.11;100218.38;107635;1251;97842;-62
2023/10/21 10:20:33;;;;;;;29.60;5.80;;;;;;;38.68;22.71;100220.35;107587;1253;111895;-62
2023/10/21 10:23:08;;;;;;;20.10;5.10;;;;;;;39.06;22.69;100220.27;107619;1251;109813;-62
2023/10/21 10:25:38;;;;;;;20.00;4.70;;;;;;;39.51;22.90;100216.47;107553;1252;109546;-63
2023/10/21 10:28:17;;;;;;;15.50;5.30;;;;;;;40.02;22.09;100213.91;107608;1253;97818;-62
2023/10/21 10:30:52;;;;;;;16.80;4.30;;;;;;;40.39;20.05;100209.91;107580;1251;97906;-63
2023/10/21 10:33:25;;;;;;;14.30;4.50;;;;;;;40.35;20.45;100210.60;107671;1251;111597;-64
2023/10/21 10:35:55;;;;;;;17.40;5.10;;;;;;;40.66;20.98;100214.81;107617;1251;108563;-63
2023/10/21 10:38:25;;;;;;;18.40;5.30;;;;;;;40.99;20.21;100212.20;107622;1251;106397;-64
2023/10/21 10:41:15;;;;;;;33.00;5.80;;;;;;;41.14;20.37;100215.87;107462;1252;97809;-64
2023/10/21 10:43:52;;;;;;;19.30;5.10;;;;;;;41.41;19.71;100217.13;107653;1255;97947;-63
2023/10/21 10:46:22;;;;;;;20.70;5.00;;;;;;;41.72;19.77;100221.77;107653;1251;111127;-63
2023/10/21 10:48:51;;;;;;;19.80;5.30;;;;;;;41.88;19.43;100221.14;107599;1251;109147;-62
2023/10/21 10:51:27;;;;;;;21.90;5.70;;;;;;;42.15;19.19;100219.42;107588;1251;108674;-63
2023/10/21 10:54:00;;;;;;;22.20;5.50;;;;;;;42.44;18.95;100213.05;107615;1251;97846;-62
2023/10/21 10:56:49;;;;;;;19.50;4.60;;;;;;;42.77;18.95;100214.23;107590;1253;97936;-62
2023/10/21 10:59:17;;;;;;;18.60;4.30;;;;;;;43.10;18.34;100212.59;107621;1253;112784;-62
2023/10/21 11:01:59;;;;;;;16.60;5.20;;;;;;;43.34;18.05;100210.98;107641;1253;109086;-63
2023/10/21 11:04:29;;;;;;;13.20;4.90;;;;;;;43.57;17.68;100208.63;107636;1251;107682;-64
2023/10/21 11:06:58;;;;;;;19.80;4.40;;;;;;;43.75;17.03;100204.67;107584;1253;97831;-62
2023/10/21 11:09:30;;;;;;;22.80;5.10;;;;;;;43.78;15.27;100208.11;107617;1251;98372;-63
2023/10/21 11:11:59;;;;;;;14.10;4.00;;;;;;;43.45;15.49;100200.20;107578;1251;111875;-62
2023/10/21 11:14:38;;;;;;;17.80;4.20;;;;;;;43.28;16.58;100198.27;107663;1253;108973;-62
2023/10/21 11:17:07;;;;;;;15.20;4.30;;;;;;;43.23;16.37;100197.85;107621;1253;106940;-64